Time;durP1;ratioP1;P1;durP2;ratioP2;P2;SDS_P1;SDS_P2;PMS_P1;PMS_P2;Temp;Humidity;BMP_temperature;BMP_pressure;BME280_temperature;BME280_humidity;BME280_pressure;Samples;Min_cycle;Max_cycle;Signal;HPM_P1;HPM_P2
2022/07/20 00:02:11;;;;;;;;;;;18.00;99.90;;;;;;4943158;29;20456;-74
2022/07/20 00:04:36;;;;;;;;;;;18.00;99.90;;;;;;4942250;29;19914;-76
2022/07/20 00:07:02;;;;;;;;;;;18.00;99.90;;;;;;4933984;29;19993;-75
2022/07/20 00:12:12;;;;;;;;;;;18.10;99.90;;;;;;4941810;29;19929;-76
2022/07/20 00:14:37;;;;;;;;;;;18.10;99.90;;;;;;4944155;29;19910;-76
2022/07/20 00:17:03;;;;;;;;;;;18.10;99.90;;;;;;4941016;29;19914;-75
2022/07/20 00:19:29;;;;;;;;;;;18.10;99.90;;;;;;4941900;29;19938;-75
2022/07/20 00:21:54;;;;;;;;;;;18.10;99.90;;;;;;4938991;28;20356;-75
2022/07/20 00:24:20;;;;;;;;;;;18.10;99.90;;;;;;4942973;28;19942;-76
2022/07/20 00:26:46;;;;;;;;;;;18.00;99.90;;;;;;4933657;28;20005;-75
2022/07/20 00:29:11;;;;;;;;;;;18.00;99.90;;;;;;4944080;28;19965;-76
2022/07/20 00:31:37;;;;;;;;;;;17.90;99.90;;;;;;4941867;28;19933;-76
2022/07/20 00:34:03;;;;;;;;;;;17.90;99.90;;;;;;4941754;29;19914;-75
2022/07/20 00:36:29;;;;;;;;;;;17.90;99.90;;;;;;4933363;29;19930;-76
2022/07/20 00:38:54;;;;;;;;;;;17.90;99.90;;;;;;4942425;29;20357;-76
2022/07/20 00:41:20;;;;;;;;;;;17.90;99.90;;;;;;4941597;29;19922;-75
2022/07/20 00:43:52;;;;;;;;;;;17.90;99.90;;;;;;4943774;29;19961;-76
2022/07/20 00:46:18;;;;;;;;;;;17.80;99.90;;;;;;4939033;28;19914;-76
2022/07/20 00:48:43;;;;;;;;;;;17.80;99.90;;;;;;4942658;29;20337;-76
2022/07/20 00:51:09;;;;;;;;;;;17.80;99.90;;;;;;4941591;29;20447;-76
2022/07/20 00:53:35;;;;;;;;;;;17.80;99.90;;;;;;4942067;28;19915;-76
2022/07/20 00:56:01;;;;;;;;;;;17.80;99.90;;;;;;4939353;28;19969;-75
2022/07/20 00:58:26;;;;;;;;;;;17.80;99.90;;;;;;4942569;28;20379;-75
2022/07/20 01:00:52;;;;;;;;;;;17.70;99.90;;;;;;4932494;29;19962;-76
2022/07/20 01:03:17;;;;;;;;;;;17.70;99.90;;;;;;4943216;28;19925;-76
2022/07/20 01:05:43;;;;;;;;;;;17.70;99.90;;;;;;4941360;28;20382;-76
2022/07/20 01:08:08;;;;;;;;;;;17.60;99.90;;;;;;4939986;29;20163;-76
2022/07/20 01:10:34;;;;;;;;;;;17.60;99.90;;;;;;4939786;29;19926;-76
2022/07/20 01:13:00;;;;;;;;;;;17.60;99.90;;;;;;4945866;29;20073;-77
2022/07/20 01:15:25;;;;;;;;;;;17.60;99.90;;;;;;4941592;29;19969;-76
2022/07/20 01:17:51;;;;;;;;;;;17.60;99.90;;;;;;4942809;28;19918;-76
2022/07/20 01:20:17;;;;;;;;;;;17.70;99.90;;;;;;4941678;29;19918;-76
2022/07/20 01:22:43;;;;;;;;;;;17.80;99.90;;;;;;4942403;28;20239;-76
2022/07/20 01:25:08;;;;;;;;;;;17.80;99.90;;;;;;4945992;28;19918;-77
2022/07/20 01:27:34;;;;;;;;;;;17.80;99.90;;;;;;4935223;29;19925;-76
2022/07/20 01:30:00;;;;;;;;;;;17.80;99.90;;;;;;4936764;29;19961;-76
2022/07/20 01:32:25;;;;;;;;;;;17.80;99.90;;;;;;4940618;29;20707;-76
2022/07/20 01:34:51;;;;;;;;;;;17.80;99.90;;;;;;4943205;29;19919;-76
2022/07/20 01:37:16;;;;;;;;;;;17.90;99.90;;;;;;4931576;29;20410;-76
2022/07/20 01:39:42;;;;;;;;;;;17.90;99.90;;;;;;4939183;29;20516;-76
2022/07/20 01:42:07;;;;;;;;;;;17.90;99.90;;;;;;4935620;29;20354;-76
2022/07/20 01:44:33;;;;;;;;;;;17.90;99.90;;;;;;4940477;29;20412;-76
2022/07/20 01:46:58;;;;;;;;;;;18.00;99.90;;;;;;4941149;29;20021;-76
2022/07/20 01:49:24;;;;;;;;;;;18.00;99.90;;;;;;4938141;29;19967;-76
2022/07/20 01:51:51;;;;;;;;;;;18.00;99.90;;;;;;4938282;29;19951;-75
2022/07/20 01:54:17;;;;;;;;;;;18.00;99.90;;;;;;4934565;29;19937;-77
2022/07/20 01:56:42;;;;;;;;;;;18.00;99.90;;;;;;4935363;29;20322;-76
2022/07/20 01:59:08;;;;;;;;;;;17.90;99.90;;;;;;4940227;29;19914;-76
2022/07/20 02:01:34;;;;;;;;;;;17.90;99.90;;;;;;4937003;28;19914;-76
2022/07/20 02:03:59;;;;;;;;;;;17.80;99.90;;;;;;4944635;28;20405;-75
2022/07/20 02:06:25;;;;;;;;;;;17.80;99.90;;;;;;4936465;28;19981;-75
2022/07/20 02:08:50;;;;;;;;;;;17.90;99.90;;;;;;4940075;29;19922;-76
2022/07/20 02:11:16;;;;;;;;;;;17.80;99.90;;;;;;4951498;28;19922;-76
2022/07/20 02:13:41;;;;;;;;;;;17.80;99.90;;;;;;4935353;29;19957;-76
2022/07/20 02:16:16;;;;;;;;;;;17.80;99.90;;;;;;4943705;29;19929;-76
2022/07/20 02:18:46;;;;;;;;;;;18.00;99.90;;;;;;4942393;28;20022;-75
2022/07/20 02:21:12;;;;;;;;;;;18.00;99.90;;;;;;4941936;29;19914;-75
2022/07/20 02:23:38;;;;;;;;;;;18.10;99.90;;;;;;4945565;28;19921;-75
2022/07/20 02:26:03;;;;;;;;;;;18.20;99.90;;;;;;4945107;28;19914;-75
2022/07/20 02:28:29;;;;;;;;;;;18.10;99.90;;;;;;4931792;29;20027;-76
2022/07/20 02:30:55;;;;;;;;;;;18.20;99.90;;;;;;4942945;28;19926;-76
2022/07/20 02:33:20;;;;;;;;;;;18.20;99.90;;;;;;4934010;29;19915;-76
2022/07/20 02:35:45;;;;;;;;;;;18.20;99.90;;;;;;4932037;29;19977;-76
2022/07/20 02:38:11;;;;;;;;;;;18.20;99.90;;;;;;4943524;29;19918;-75
2022/07/20 02:40:37;;;;;;;;;;;18.20;99.90;;;;;;4931462;29;19918;-76
2022/07/20 02:43:02;;;;;;;;;;;18.10;99.90;;;;;;4932904;29;19962;-76
2022/07/20 02:45:28;;;;;;;;;;;18.10;99.90;;;;;;4932122;29;19922;-76
2022/07/20 02:47:54;;;;;;;;;;;18.10;99.90;;;;;;4942871;28;19914;-76
2022/07/20 02:50:19;;;;;;;;;;;18.10;99.90;;;;;;4936019;28;20002;-76
2022/07/20 02:52:45;;;;;;;;;;;18.10;99.90;;;;;;4937868;29;19919;-77
2022/07/20 02:55:11;;;;;;;;;;;18.20;99.90;;;;;;4941960;29;20279;-76
2022/07/20 02:57:37;;;;;;;;;;;18.20;99.90;;;;;;4943454;28;20009;-76
2022/07/20 03:00:04;;;;;;;;;;;18.30;99.90;;;;;;4934837;29;19954;-75
2022/07/20 03:02:30;;;;;;;;;;;18.30;99.90;;;;;;4939365;28;19933;-76
2022/07/20 03:04:55;;;;;;;;;;;18.30;99.90;;;;;;4935734;29;20423;-76
2022/07/20 03:07:21;;;;;;;;;;;18.20;99.90;;;;;;4929795;29;20613;-76
2022/07/20 03:09:46;;;;;;;;;;;18.20;99.90;;;;;;4944537;29;20301;-76
2022/07/20 03:12:12;;;;;;;;;;;18.20;99.90;;;;;;4937845;29;20387;-75
2022/07/20 03:14:37;;;;;;;;;;;18.20;99.90;;;;;;4937658;29;19925;-76
2022/07/20 03:17:03;;;;;;;;;;;18.20;99.90;;;;;;4935455;28;19914;-75
2022/07/20 03:19:29;;;;;;;;;;;18.10;99.90;;;;;;4944806;29;19916;-76
2022/07/20 03:21:54;;;;;;;;;;;18.10;99.90;;;;;;4941470;29;19920;-76
2022/07/20 03:24:20;;;;;;;;;;;18.10;99.90;;;;;;4945733;29;19919;-75
2022/07/20 03:26:45;;;;;;;;;;;18.10;99.90;;;;;;4945234;29;19937;-76
2022/07/20 03:29:11;;;;;;;;;;;18.10;99.90;;;;;;4942571;28;20048;-75
2022/07/20 03:31:36;;;;;;;;;;;18.10;99.90;;;;;;4943737;29;20301;-76
2022/07/20 03:34:02;;;;;;;;;;;18.10;99.90;;;;;;4945146;29;20278;-76
2022/07/20 03:36:27;;;;;;;;;;;18.10;99.90;;;;;;4941740;29;19914;-76
2022/07/20 03:38:53;;;;;;;;;;;18.20;99.90;;;;;;4943552;29;19915;-76
2022/07/20 03:41:18;;;;;;;;;;;18.20;99.90;;;;;;4941210;29;19915;-76
2022/07/20 03:43:44;;;;;;;;;;;18.30;99.90;;;;;;4953752;28;20427;-75
2022/07/20 03:46:10;;;;;;;;;;;18.30;99.90;;;;;;4943501;28;19918;-75
2022/07/20 03:48:36;;;;;;;;;;;18.30;99.90;;;;;;4944894;28;20340;-75
2022/07/20 03:51:02;;;;;;;;;;;18.40;99.90;;;;;;4942540;29;19941;-76
2022/07/20 03:53:28;;;;;;;;;;;18.30;99.90;;;;;;4945302;29;19911;-75
2022/07/20 03:55:53;;;;;;;;;;;18.40;99.90;;;;;;4933519;29;19910;-75
2022/07/20 03:58:19;;;;;;;;;;;18.40;99.90;;;;;;4938591;29;19921;-74
2022/07/20 04:00:44;;;;;;;;;;;18.50;99.90;;;;;;4935471;29;20123;-75
2022/07/20 04:03:10;;;;;;;;;;;18.50;99.90;;;;;;4937553;28;19918;-75
2022/07/20 04:05:35;;;;;;;;;;;18.60;99.90;;;;;;4932791;29;19914;-75
2022/07/20 04:08:01;;;;;;;;;;;18.60;99.90;;;;;;4934078;28;19910;-75
2022/07/20 04:10:27;;;;;;;;;;;18.50;99.90;;;;;;4935563;28;19927;-75
2022/07/20 04:12:52;;;;;;;;;;;18.50;99.90;;;;;;4944552;29;19918;-75
2022/07/20 04:15:18;;;;;;;;;;;18.50;99.90;;;;;;4940770;29;19914;-76
2022/07/20 04:17:43;;;;;;;;;;;18.60;99.90;;;;;;4944394;28;19925;-76
2022/07/20 04:20:09;;;;;;;;;;;18.60;99.90;;;;;;4940346;29;19910;-77
2022/07/20 04:22:34;;;;;;;;;;;18.60;99.90;;;;;;4941917;29;19914;-75
2022/07/20 04:25:00;;;;;;;;;;;18.60;99.90;;;;;;4936160;29;20046;-76
2022/07/20 04:27:26;;;;;;;;;;;18.60;99.90;;;;;;4943982;29;19953;-76
2022/07/20 04:29:51;;;;;;;;;;;18.60;99.90;;;;;;4926835;28;20005;-77
2022/07/20 04:32:17;;;;;;;;;;;18.50;99.90;;;;;;4938412;29;20412;-77
2022/07/20 04:34:42;;;;;;;;;;;18.50;99.90;;;;;;4938273;29;20559;-77
2022/07/20 04:37:08;;;;;;;;;;;18.50;99.90;;;;;;4941966;29;19915;-77
2022/07/20 04:39:33;;;;;;;;;;;18.50;99.90;;;;;;4940017;23;20825;-73
2022/07/20 04:41:59;;;;;;;;;;;18.50;99.90;;;;;;4904086;29;19915;-75
2022/07/20 04:44:24;;;;;;;;;;;18.50;99.90;;;;;;4918783;29;19914;-75
2022/07/20 04:46:50;;;;;;;;;;;18.50;99.90;;;;;;4917338;29;19927;-75
2022/07/20 04:49:16;;;;;;;;;;;18.50;99.90;;;;;;4919879;29;20417;-75
2022/07/20 04:51:42;;;;;;;;;;;18.60;99.90;;;;;;4914772;29;20422;-75
2022/07/20 04:54:07;;;;;;;;;;;18.60;99.90;;;;;;4915593;29;19918;-75
2022/07/20 04:56:33;;;;;;;;;;;18.60;99.90;;;;;;4918261;29;19994;-74
2022/07/20 04:58:58;;;;;;;;;;;18.60;99.90;;;;;;4912443;29;20264;-73
2022/07/20 05:01:25;;;;;;;;;;;18.70;99.90;;;;;;4922176;23;20116;-74
2022/07/20 05:03:51;;;;;;;;;;;18.80;99.90;;;;;;4912609;29;19914;-75
2022/07/20 05:06:17;;;;;;;;;;;18.80;99.90;;;;;;4910519;29;20421;-75
2022/07/20 05:08:43;;;;;;;;;;;18.90;99.90;;;;;;4910802;29;19921;-75
2022/07/20 05:11:08;;;;;;;;;;;19.00;99.90;;;;;;4891676;29;20729;-73
2022/07/20 05:13:34;;;;;;;;;;;19.00;99.90;;;;;;4919757;29;19915;-73
2022/07/20 05:16:00;;;;;;;;;;;19.00;99.90;;;;;;4916887;29;20112;-72
2022/07/20 05:18:27;;;;;;;;;;;19.00;99.90;;;;;;4913891;29;19915;-73
2022/07/20 05:20:52;;;;;;;;;;;19.10;99.90;;;;;;4891541;29;19919;-73
2022/07/20 05:23:18;;;;;;;;;;;19.20;99.90;;;;;;4918622;29;19922;-73
2022/07/20 05:25:43;;;;;;;;;;;19.20;99.90;;;;;;4920280;29;20009;-73
2022/07/20 05:28:09;;;;;;;;;;;19.30;99.90;;;;;;4905950;29;19966;-73
2022/07/20 05:30:34;;;;;;;;;;;19.30;99.90;;;;;;4908804;29;20429;-73
2022/07/20 05:33:00;;;;;;;;;;;19.40;99.90;;;;;;4907201;29;19973;-72
2022/07/20 05:35:26;;;;;;;;;;;19.40;99.90;;;;;;4917625;29;19995;-73
2022/07/20 05:37:51;;;;;;;;;;;19.40;99.90;;;;;;4917866;29;20399;-73
2022/07/20 05:40:18;;;;;;;;;;;19.50;99.90;;;;;;4906788;29;19926;-73
2022/07/20 05:42:43;;;;;;;;;;;19.50;99.90;;;;;;4924818;29;19915;-72
2022/07/20 05:45:09;;;;;;;;;;;19.60;99.90;;;;;;4916632;29;19922;-74
2022/07/20 05:47:34;;;;;;;;;;;19.60;99.90;;;;;;4908978;29;20283;-73
2022/07/20 05:50:00;;;;;;;;;;;19.70;99.90;;;;;;4916941;29;20601;-74
2022/07/20 05:52:26;;;;;;;;;;;19.70;99.90;;;;;;4910415;29;20318;-73
2022/07/20 05:54:51;;;;;;;;;;;19.70;99.90;;;;;;4910036;29;20066;-73
2022/07/20 05:57:17;;;;;;;;;;;19.70;99.90;;;;;;4909015;29;20299;-73
2022/07/20 05:59:43;;;;;;;;;;;19.80;99.90;;;;;;4913752;29;19914;-73
2022/07/20 06:02:08;;;;;;;;;;;19.90;99.90;;;;;;4915803;29;19918;-73
2022/07/20 06:04:34;;;;;;;;;;;19.80;99.90;;;;;;4900693;29;20572;-73
2022/07/20 06:07:00;;;;;;;;;;;19.80;99.90;;;;;;4906942;29;19915;-72
2022/07/20 06:09:25;;;;;;;;;;;19.80;99.90;;;;;;4919585;29;19977;-73
2022/07/20 06:11:51;;;;;;;;;;;19.80;99.90;;;;;;4916351;29;20008;-73
2022/07/20 06:14:17;;;;;;;;;;;20.00;99.90;;;;;;4915312;29;20033;-73
2022/07/20 06:16:42;;;;;;;;;;;20.00;99.90;;;;;;4910103;29;20037;-73
2022/07/20 06:19:08;;;;;;;;;;;20.10;99.90;;;;;;4918055;29;20029;-73
2022/07/20 06:21:33;;;;;;;;;;;20.20;99.90;;;;;;4909231;29;20777;-73
2022/07/20 06:23:59;;;;;;;;;;;20.30;99.90;;;;;;3895889;29;10000592;-73
2022/07/20 06:26:24;;;;;;;;;;;20.30;99.90;;;;;;4905213;29;19915;-73
2022/07/20 06:28:50;;;;;;;;;;;20.20;99.90;;;;;;4909842;29;19914;-73
2022/07/20 06:31:15;;;;;;;;;;;20.30;99.90;;;;;;4913037;29;20355;-73
2022/07/20 06:33:41;;;;;;;;;;;20.50;99.90;;;;;;4908835;29;19994;-74
2022/07/20 06:36:07;;;;;;;;;;;20.90;99.90;;;;;;4893924;29;19919;-73
2022/07/20 06:38:35;;;;;;;;;;;21.10;99.90;;;;;;4908496;29;19926;-73
2022/07/20 06:41:01;;;;;;;;;;;21.20;99.90;;;;;;4908595;29;20422;-73
2022/07/20 06:43:27;;;;;;;;;;;21.30;99.90;;;;;;4903603;29;19915;-74
2022/07/20 06:45:52;;;;;;;;;;;21.30;99.90;;;;;;4914575;29;20005;-73
2022/07/20 06:48:19;;;;;;;;;;;21.20;99.90;;;;;;4917144;29;19998;-73
2022/07/20 06:50:45;;;;;;;;;;;21.30;99.90;;;;;;4912259;29;20403;-74
2022/07/20 06:53:11;;;;;;;;;;;21.10;99.90;;;;;;4914276;29;20382;-73
2022/07/20 06:55:36;;;;;;;;;;;21.10;99.90;;;;;;4898705;29;19914;-73
2022/07/20 06:58:02;;;;;;;;;;;21.00;99.90;;;;;;4906435;29;20375;-74
2022/07/20 07:00:28;;;;;;;;;;;20.80;99.90;;;;;;4895355;29;20490;-74
2022/07/20 07:02:54;;;;;;;;;;;20.70;99.90;;;;;;4899151;28;19911;-74
2022/07/20 07:05:19;;;;;;;;;;;20.70;99.90;;;;;;4906958;29;19966;-73
2022/07/20 07:07:45;;;;;;;;;;;21.00;99.90;;;;;;4903676;29;19929;-74
2022/07/20 07:10:10;;;;;;;;;;;21.20;99.90;;;;;;4916622;29;20386;-74
2022/07/20 07:12:36;;;;;;;;;;;21.20;99.90;;;;;;4918748;29;19922;-73
2022/07/20 07:15:02;;;;;;;;;;;21.40;99.90;;;;;;4915378;29;19919;-73
2022/07/20 07:17:30;;;;;;;;;;;21.40;99.90;;;;;;4898733;29;20025;-74
2022/07/20 07:19:56;;;;;;;;;;;21.60;99.90;;;;;;4911216;29;19915;-73
2022/07/20 07:22:22;;;;;;;;;;;21.60;99.90;;;;;;4901904;29;19955;-74
2022/07/20 07:24:48;;;;;;;;;;;21.70;99.90;;;;;;4904807;29;20872;-73
2022/07/20 07:27:13;;;;;;;;;;;22.00;99.90;;;;;;4910979;29;19934;-73
2022/07/20 07:29:39;;;;;;;;;;;22.10;99.90;;;;;;4903452;29;19966;-74
2022/07/20 07:32:04;;;;;;;;;;;22.40;99.90;;;;;;4903836;29;19970;-73
2022/07/20 07:34:30;;;;;;;;;;;22.50;99.90;;;;;;4907767;29;19969;-74
2022/07/20 07:36:56;;;;;;;;;;;22.60;99.90;;;;;;4907508;29;19915;-73
2022/07/20 07:39:21;;;;;;;;;;;23.30;99.90;;;;;;4902973;29;20338;-74
2022/07/20 07:41:47;;;;;;;;;;;23.80;99.90;;;;;;4913515;29;19918;-74
2022/07/20 07:44:12;;;;;;;;;;;24.10;99.90;;;;;;4905727;29;20406;-74
2022/07/20 07:46:38;;;;;;;;;;;24.40;99.90;;;;;;4911859;29;20394;-74
2022/07/20 07:49:04;;;;;;;;;;;24.90;99.90;;;;;;4907042;29;19982;-75
2022/07/20 07:51:29;;;;;;;;;;;25.30;99.90;;;;;;4905866;29;20677;-73
2022/07/20 07:53:55;;;;;;;;;;;25.90;99.90;;;;;;4909371;29;19915;-74
2022/07/20 07:56:21;;;;;;;;;;;28.20;99.90;;;;;;4907893;29;20028;-74
2022/07/20 07:58:46;;;;;;;;;;;30.90;92.70;;;;;;4907013;29;19967;-75
2022/07/20 08:01:12;;;;;;;;;;;31.80;75.70;;;;;;4902904;29;19927;-75
2022/07/20 08:03:37;;;;;;;;;;;30.20;88.60;;;;;;4901588;29;19947;-74
2022/07/20 08:06:03;;;;;;;;;;;30.10;78.30;;;;;;4906358;29;19922;-75
2022/07/20 08:08:29;;;;;;;;;;;30.20;89.90;;;;;;4899897;29;20036;-75
2022/07/20 08:10:55;;;;;;;;;;;31.90;80.80;;;;;;4917066;29;20408;-72
2022/07/20 08:13:20;;;;;;;;;;;32.10;71.70;;;;;;4912878;29;19929;-74
2022/07/20 08:15:46;;;;;;;;;;;32.90;67.90;;;;;;4911828;29;19915;-73
2022/07/20 08:18:11;;;;;;;;;;;33.40;63.30;;;;;;4912895;29;20661;-75
2022/07/20 08:20:37;;;;;;;;;;;35.30;57.50;;;;;;4908006;29;19922;-74
2022/07/20 08:23:03;;;;;;;;;;;37.10;49.80;;;;;;4907150;29;19997;-75
2022/07/20 08:25:28;;;;;;;;;;;37.40;50.70;;;;;;4905571;29;20014;-72
2022/07/20 08:27:54;;;;;;;;;;;38.20;44.60;;;;;;4907925;29;20307;-72
2022/07/20 08:30:20;;;;;;;;;;;37.80;44.40;;;;;;4905566;29;19933;-72
2022/07/20 08:32:45;;;;;;;;;;;36.90;45.30;;;;;;4914640;29;20018;-72
2022/07/20 08:35:11;;;;;;;;;;;36.70;46.90;;;;;;4913391;29;19942;-72
2022/07/20 08:37:40;;;;;;;;;;;36.00;47.50;;;;;;4903615;29;20737;-79
2022/07/20 08:40:06;;;;;;;;;;;35.30;46.80;;;;;;4897978;29;19962;-72
2022/07/20 08:42:32;;;;;;;;;;;36.70;47.80;;;;;;4914362;29;20348;-72
2022/07/20 08:44:58;;;;;;;;;;;36.90;44.60;;;;;;4893321;29;19914;-73
2022/07/20 08:47:25;;;;;;;;;;;38.10;43.20;;;;;;4918378;29;19922;-71
2022/07/20 08:49:51;;;;;;;;;;;37.30;43.10;;;;;;4883056;29;19914;-72
2022/07/20 08:52:17;;;;;;;;;;;38.00;43.80;;;;;;4912139;29;20551;-72
2022/07/20 08:54:43;;;;;;;;;;;38.60;43.40;;;;;;4913226;29;20109;-71
2022/07/20 08:57:09;;;;;;;;;;;39.10;42.50;;;;;;4916551;29;19967;-72
2022/07/20 08:59:35;;;;;;;;;;;39.80;40.50;;;;;;4910934;29;20290;-72
2022/07/20 09:02:03;;;;;;;;;;;39.50;38.20;;;;;;4920576;29;19918;-72
2022/07/20 09:04:29;;;;;;;;;;;38.60;40.70;;;;;;4920267;29;19919;-73
2022/07/20 09:06:55;;;;;;;;;;;39.20;41.20;;;;;;4911826;29;20414;-72
2022/07/20 09:09:21;;;;;;;;;;;38.90;40.10;;;;;;4563336;29;10000175;-72
2022/07/20 09:11:47;;;;;;;;;;;38.90;39.90;;;;;;4905966;29;20922;-72
2022/07/20 09:14:12;;;;;;;;;;;38.40;40.30;;;;;;4912142;29;19915;-73
2022/07/20 09:16:50;;;;;;;;;;;37.60;41.30;;;;;;4903205;29;19930;-75
2022/07/20 09:19:16;;;;;;;;;;;36.90;42.40;;;;;;4919903;23;19934;-80
2022/07/20 09:21:41;;;;;;;;;;;37.10;42.50;;;;;;4897684;29;20014;-81
2022/07/20 09:24:08;;;;;;;;;;;36.70;43.40;;;;;;4900347;29;20454;-79
2022/07/20 09:26:34;;;;;;;;;;;36.70;40.50;;;;;;4897453;29;20026;-81
2022/07/20 09:29:03;;;;;;;;;;;36.30;40.50;;;;;;4895007;29;19915;-77
2022/07/20 09:31:35;;;;;;;;;;;36.10;43.70;;;;;;4901634;29;19933;-79
2022/07/20 09:34:05;;;;;;;;;;;36.10;45.80;;;;;;4904989;29;20005;-77
2022/07/20 09:36:32;;;;;;;;;;;36.40;42.10;;;;;;4904605;29;19978;-79
2022/07/20 09:39:07;;;;;;;;;;;36.80;43.90;;;;;;4893687;29;19915;-79
2022/07/20 09:41:34;;;;;;;;;;;37.10;39.00;;;;;;4903052;29;19915;-78
2022/07/20 09:44:01;;;;;;;;;;;37.10;41.40;;;;;;4914265;29;19957;-79
2022/07/20 09:46:27;;;;;;;;;;;36.30;40.30;;;;;;4906281;29;20607;-82
2022/07/20 09:48:57;;;;;;;;;;;35.30;41.90;;;;;;4901317;29;19915;-79
2022/07/20 09:51:36;;;;;;;;;;;33.80;43.00;;;;;;4905044;29;19950;-80
2022/07/20 09:54:06;;;;;;;;;;;33.40;46.50;;;;;;4903436;29;19919;-78
2022/07/20 09:56:32;;;;;;;;;;;33.50;45.70;;;;;;4885451;29;19963;-84
2022/07/20 09:58:58;;;;;;;;;;;33.80;47.60;;;;;;4897493;29;20034;-79
2022/07/20 10:01:26;;;;;;;;;;;33.80;46.90;;;;;;4905685;29;19919;-83
2022/07/20 10:03:52;;;;;;;;;;;34.20;44.60;;;;;;4906046;29;19987;-79
2022/07/20 10:06:19;;;;;;;;;;;34.20;47.60;;;;;;4904949;29;19967;-81
2022/07/20 10:08:45;;;;;;;;;;;35.50;46.10;;;;;;4902971;29;19946;-80
2022/07/20 10:11:11;;;;;;;;;;;35.80;42.20;;;;;;4916385;29;20345;-76
2022/07/20 10:13:38;;;;;;;;;;;35.90;44.90;;;;;;4905125;29;20387;-78
2022/07/20 10:16:09;;;;;;;;;;;36.60;43.50;;;;;;4884919;29;19921;-76
2022/07/20 10:18:35;;;;;;;;;;;36.50;43.10;;;;;;4899229;29;20011;-76
2022/07/20 10:21:21;;;;;;;;;;;35.30;43.00;;;;;;4920188;29;19973;-78
2022/07/20 10:24:06;;;;;;;;;;;34.70;43.80;;;;;;4905389;29;20163;-77
2022/07/20 10:26:32;;;;;;;;;;;35.20;43.20;;;;;;4904964;29;20336;-79
2022/07/20 10:28:58;;;;;;;;;;;34.60;46.40;;;;;;4905796;29;19911;-79
2022/07/20 10:31:24;;;;;;;;;;;34.00;46.10;;;;;;4886649;29;19999;-77
2022/07/20 10:33:49;;;;;;;;;;;34.00;48.70;;;;;;4903518;29;20220;-77
2022/07/20 10:39:19;;;;;;;;;;;34.40;46.20;;;;;;4898051;29;19922;-77
2022/07/20 10:42:05;;;;;;;;;;;34.40;46.00;;;;;;4904534;29;19915;-79
2022/07/20 10:44:30;;;;;;;;;;;34.20;45.70;;;;;;4888352;29;19915;-82
2022/07/20 10:46:56;;;;;;;;;;;34.30;47.40;;;;;;4904066;29;20429;-78
2022/07/20 10:49:41;;;;;;;;;;;34.40;44.50;;;;;;4887306;29;19915;-80
2022/07/20 10:52:27;;;;;;;;;;;34.70;49.10;;;;;;4908588;29;20430;-79
2022/07/20 10:54:53;;;;;;;;;;;34.60;46.60;;;;;;4904372;29;19982;-78
2022/07/20 10:57:20;;;;;;;;;;;34.40;43.60;;;;;;4905274;29;19987;-80
2022/07/20 10:59:45;;;;;;;;;;;33.30;47.10;;;;;;4907690;29;20013;-83
2022/07/20 11:02:11;;;;;;;;;;;33.50;52.00;;;;;;4901416;29;20017;-85
2022/07/20 11:04:43;;;;;;;;;;;33.50;46.50;;;;;;4877683;29;19914;-83
2022/07/20 11:07:26;;;;;;;;;;;33.70;50.10;;;;;;4900223;29;20363;-85
2022/07/20 11:09:52;;;;;;;;;;;33.90;49.60;;;;;;4894136;29;20509;-85
2022/07/20 11:12:24;;;;;;;;;;;33.90;50.80;;;;;;4897393;29;19981;-81
2022/07/20 11:14:50;;;;;;;;;;;33.70;51.30;;;;;;4898641;29;19989;-82
2022/07/20 11:17:16;;;;;;;;;;;33.30;52.80;;;;;;4893893;29;19919;-83
2022/07/20 11:19:41;;;;;;;;;;;33.20;53.80;;;;;;4893538;29;19971;-80
2022/07/20 11:22:10;;;;;;;;;;;33.00;54.20;;;;;;4895247;29;19985;-83
2022/07/20 11:24:36;;;;;;;;;;;33.00;58.10;;;;;;4895780;29;20439;-83
2022/07/20 11:27:14;;;;;;;;;;;33.10;55.20;;;;;;4896083;29;19915;-84
2022/07/20 11:29:47;;;;;;;;;;;32.50;55.00;;;;;;4896069;29;19969;-82
2022/07/20 11:32:13;;;;;;;;;;;31.60;54.40;;;;;;4885631;29;19923;-83
2022/07/20 11:34:48;;;;;;;;;;;30.30;57.20;;;;;;4895945;29;20438;-85
2022/07/20 11:37:14;;;;;;;;;;;29.60;63.50;;;;;;4893316;29;19921;-83
2022/07/20 11:39:40;;;;;;;;;;;29.50;70.50;;;;;;4892261;29;20033;-82
2022/07/20 11:42:15;;;;;;;;;;;29.50;73.00;;;;;;4895881;29;20502;-81
2022/07/20 11:44:41;;;;;;;;;;;29.60;66.00;;;;;;4901404;29;19919;-84
2022/07/20 11:47:08;;;;;;;;;;;29.40;71.80;;;;;;4905435;29;20052;-86
2022/07/20 11:49:33;;;;;;;;;;;29.60;83.70;;;;;;4904270;29;20535;-88
2022/07/20 11:52:01;;;;;;;;;;;30.10;80.80;;;;;;4905339;29;19923;-85
2022/07/20 11:54:28;;;;;;;;;;;30.10;68.20;;;;;;4905059;29;20002;-85
2022/07/20 11:56:54;;;;;;;;;;;29.50;67.10;;;;;;4903793;29;19937;-87
2022/07/20 11:59:20;;;;;;;;;;;29.20;73.30;;;;;;4904567;29;19911;-83
2022/07/20 12:01:48;;;;;;;;;;;29.30;83.00;;;;;;4894993;29;20362;-78
2022/07/20 12:04:14;;;;;;;;;;;29.50;82.00;;;;;;4899970;29;19915;-81
2022/07/20 12:06:40;;;;;;;;;;;29.30;73.10;;;;;;4901687;29;19919;-80
2022/07/20 12:09:06;;;;;;;;;;;29.20;84.70;;;;;;4897333;29;19994;-84
2022/07/20 12:11:32;;;;;;;;;;;29.00;84.90;;;;;;4901351;29;19927;-81
2022/07/20 12:13:57;;;;;;;;;;;28.70;84.30;;;;;;4887110;29;20294;-80
2022/07/20 12:16:23;;;;;;;;;;;28.10;87.80;;;;;;4897785;29;19915;-80
2022/07/20 12:18:52;;;;;;;;;;;27.80;84.90;;;;;;4897820;29;19934;-77
2022/07/20 12:21:21;;;;;;;;;;;27.60;90.90;;;;;;4900618;29;19930;-77
2022/07/20 12:23:49;;;;;;;;;;;28.10;94.30;;;;;;4900181;29;19954;-78
2022/07/20 12:26:19;;;;;;;;;;;28.10;91.20;;;;;;4899334;29;19921;-77
2022/07/20 12:28:45;;;;;;;;;;;28.20;84.70;;;;;;4899629;29;19915;-77
2022/07/20 12:31:14;;;;;;;;;;;28.10;92.00;;;;;;4897533;29;19926;-77
2022/07/20 12:34:00;;;;;;;;;;;28.30;85.00;;;;;;4903214;29;19919;-80
2022/07/20 12:37:01;;;;;;;;;;;28.80;79.00;;;;;;4900262;29;19958;-79
2022/07/20 12:39:43;;;;;;;;;;;28.90;90.40;;;;;;4878254;29;19944;-79
2022/07/20 12:42:09;;;;;;;;;;;29.70;91.20;;;;;;4893133;29;19998;-78
2022/07/20 12:44:35;;;;;;;;;;;30.50;76.10;;;;;;4899830;29;20101;-81
2022/07/20 12:47:00;;;;;;;;;;;30.50;80.60;;;;;;4894475;29;19942;-80
2022/07/20 12:49:27;;;;;;;;;;;30.20;65.00;;;;;;4896626;29;19998;-81
2022/07/20 12:51:54;;;;;;;;;;;30.20;78.20;;;;;;4880039;29;19923;-81
2022/07/20 12:54:20;;;;;;;;;;;29.90;70.70;;;;;;4904531;29;19914;-79
2022/07/20 12:56:47;;;;;;;;;;;29.40;72.40;;;;;;4903145;29;20275;-83
2022/07/20 12:59:13;;;;;;;;;;;29.40;83.20;;;;;;4902805;29;19962;-85
2022/07/20 13:01:40;;;;;;;;;;;29.10;71.60;;;;;;4905324;29;19957;-82
2022/07/20 13:04:06;;;;;;;;;;;28.90;77.00;;;;;;4903897;29;20390;-79
2022/07/20 13:06:32;;;;;;;;;;;28.40;74.80;;;;;;4907980;29;19919;-81
2022/07/20 13:08:58;;;;;;;;;;;27.90;84.40;;;;;;4909606;29;19917;-84
2022/07/20 13:11:23;;;;;;;;;;;27.80;90.30;;;;;;4909520;29;19922;-81
2022/07/20 13:13:49;;;;;;;;;;;27.70;87.50;;;;;;4908523;29;19926;-80
2022/07/20 13:16:14;;;;;;;;;;;27.90;85.00;;;;;;4890270;29;20022;-81
2022/07/20 13:18:40;;;;;;;;;;;28.00;86.20;;;;;;4905772;29;19915;-79
2022/07/20 13:21:05;;;;;;;;;;;27.70;83.20;;;;;;4929926;23;19973;-68
2022/07/20 13:23:31;;;;;;;;;;;27.70;93.20;;;;;;4946595;23;19971;-73
2022/07/20 13:25:57;;;;;;;;;;;28.10;94.70;;;;;;4902669;29;19915;-73
2022/07/20 13:28:22;;;;;;;;;;;28.10;86.70;;;;;;4923108;23;19930;-72
2022/07/20 13:30:48;;;;;;;;;;;28.00;84.30;;;;;;4896637;29;19915;-73
2022/07/20 13:33:14;;;;;;;;;;;27.80;90.60;;;;;;4916845;29;19957;-73
2022/07/20 13:35:41;;;;;;;;;;;27.80;90.80;;;;;;4904482;29;19915;-73
2022/07/20 13:38:07;;;;;;;;;;;27.40;92.10;;;;;;4909865;29;19914;-73
2022/07/20 13:40:33;;;;;;;;;;;27.20;94.10;;;;;;4924324;29;20389;-73
2022/07/20 13:42:59;;;;;;;;;;;27.30;91.30;;;;;;4922011;29;19920;-73
2022/07/20 13:45:24;;;;;;;;;;;27.70;95.10;;;;;;4924806;29;19914;-73
2022/07/20 13:47:50;;;;;;;;;;;27.90;85.40;;;;;;4925810;29;19921;-73
2022/07/20 13:50:15;;;;;;;;;;;27.90;93.30;;;;;;4919115;29;19993;-73
2022/07/20 13:52:41;;;;;;;;;;;28.00;94.40;;;;;;4928273;29;20386;-73
2022/07/20 13:55:07;;;;;;;;;;;27.90;91.60;;;;;;4917184;29;20340;-72
2022/07/20 13:57:33;;;;;;;;;;;27.40;90.10;;;;;;4908166;29;19910;-74
2022/07/20 13:59:59;;;;;;;;;;;27.20;98.00;;;;;;4907399;29;20724;-73
2022/07/20 14:02:24;;;;;;;;;;;26.90;93.20;;;;;;4919891;29;20030;-73
2022/07/20 14:04:50;;;;;;;;;;;26.80;93.30;;;;;;4909812;29;20018;-72
2022/07/20 14:07:16;;;;;;;;;;;26.70;96.90;;;;;;4930976;29;19914;-73
2022/07/20 14:09:41;;;;;;;;;;;27.00;92.30;;;;;;4932799;29;19914;-73
2022/07/20 14:12:07;;;;;;;;;;;26.90;94.80;;;;;;4923091;29;19918;-73
2022/07/20 14:14:32;;;;;;;;;;;26.80;92.50;;;;;;4915722;29;20786;-73
2022/07/20 14:16:58;;;;;;;;;;;26.70;90.10;;;;;;4916223;29;19977;-74
2022/07/20 14:19:24;;;;;;;;;;;26.60;92.40;;;;;;4928248;29;20331;-75